sensor_id;sensor_type;location;lat;lon;timestamp;temperature;humidity
12413;DHT22;13877;18.896;-99.222;2023-06-22T00:01:20;34.60;21.70
12413;DHT22;13877;18.896;-99.222;2023-06-22T00:03:48;34.10;23.40
12413;DHT22;13877;18.896;-99.222;2023-06-22T00:06:16;33.70;23.70
12413;DHT22;13877;18.896;-99.222;2023-06-22T00:08:42;33.40;23.90
12413;DHT22;13877;18.896;-99.222;2023-06-22T00:11:10;33.60;24.20
12413;DHT22;13877;18.896;-99.222;2023-06-22T00:13:38;34.00;25.10
12413;DHT22;13877;18.896;-99.222;2023-06-22T00:16:06;34.00;24.90
12413;DHT22;13877;18.896;-99.222;2023-06-22T00:18:32;34.50;24.60
12413;DHT22;13877;18.896;-99.222;2023-06-22T00:21:00;35.00;22.90
12413;DHT22;13877;18.896;-99.222;2023-06-22T00:23:27;35.00;24.00
12413;DHT22;13877;18.896;-99.222;2023-06-22T00:25:54;34.40;24.10
12413;DHT22;13877;18.896;-99.222;2023-06-22T00:28:20;33.80;25.40
12413;DHT22;13877;18.896;-99.222;2023-06-22T00:30:49;33.30;25.40
12413;DHT22;13877;18.896;-99.222;2023-06-22T00:33:16;33.10;23.10
12413;DHT22;13877;18.896;-99.222;2023-06-22T00:35:43;32.80;23.60
12413;DHT22;13877;18.896;-99.222;2023-06-22T00:38:10;32.60;23.10
12413;DHT22;13877;18.896;-99.222;2023-06-22T00:40:37;32.40;23.60
12413;DHT22;13877;18.896;-99.222;2023-06-22T00:43:04;32.10;23.80
12413;DHT22;13877;18.896;-99.222;2023-06-22T00:45:31;31.90;24.50
12413;DHT22;13877;18.896;-99.222;2023-06-22T00:47:58;31.60;24.50
12413;DHT22;13877;18.896;-99.222;2023-06-22T00:50:28;31.40;24.30
12413;DHT22;13877;18.896;-99.222;2023-06-22T00:53:05;31.20;24.60
12413;DHT22;13877;18.896;-99.222;2023-06-22T00:55:41;31.00;24.80
12413;DHT22;13877;18.896;-99.222;2023-06-22T00:58:13;30.90;24.90
12413;DHT22;13877;18.896;-99.222;2023-06-22T01:00:42;30.80;25.00
12413;DHT22;13877;18.896;-99.222;2023-06-22T01:03:09;30.70;25.90
12413;DHT22;13877;18.896;-99.222;2023-06-22T01:05:38;30.60;26.00
12413;DHT22;13877;18.896;-99.222;2023-06-22T01:11:10;30.30;25.80
12413;DHT22;13877;18.896;-99.222;2023-06-22T01:16:25;30.30;26.70
12413;DHT22;13877;18.896;-99.222;2023-06-22T01:18:55;30.30;25.70
12413;DHT22;13877;18.896;-99.222;2023-06-22T01:21:25;30.30;25.90
12413;DHT22;13877;18.896;-99.222;2023-06-22T01:29:15;30.10;26.80
12413;DHT22;13877;18.896;-99.222;2023-06-22T01:31:44;30.00;27.20
12413;DHT22;13877;18.896;-99.222;2023-06-22T01:34:12;29.90;26.60
12413;DHT22;13877;18.896;-99.222;2023-06-22T01:36:40;30.00;27.30
12413;DHT22;13877;18.896;-99.222;2023-06-22T01:39:08;30.10;28.20
12413;DHT22;13877;18.896;-99.222;2023-06-22T01:41:37;30.20;29.00
12413;DHT22;13877;18.896;-99.222;2023-06-22T01:44:06;30.20;29.60
12413;DHT22;13877;18.896;-99.222;2023-06-22T01:46:37;30.20;29.90
12413;DHT22;13877;18.896;-99.222;2023-06-22T01:49:05;30.20;30.00
12413;DHT22;13877;18.896;-99.222;2023-06-22T01:51:32;30.30;30.00
12413;DHT22;13877;18.896;-99.222;2023-06-22T01:54:00;30.30;30.30
12413;DHT22;13877;18.896;-99.222;2023-06-22T01:56:28;30.20;30.30
12413;DHT22;13877;18.896;-99.222;2023-06-22T02:02:00;30.00;30.70
12413;DHT22;13877;18.896;-99.222;2023-06-22T02:04:38;29.90;31.00
12413;DHT22;13877;18.896;-99.222;2023-06-22T02:07:12;29.80;32.60
12413;DHT22;13877;18.896;-99.222;2023-06-22T02:09:41;29.60;34.00
12413;DHT22;13877;18.896;-99.222;2023-06-22T02:12:13;29.50;35.20
12413;DHT22;13877;18.896;-99.222;2023-06-22T02:14:45;29.40;35.80
12413;DHT22;13877;18.896;-99.222;2023-06-22T02:17:13;29.30;36.10
12413;DHT22;13877;18.896;-99.222;2023-06-22T02:19:44;29.20;36.60
12413;DHT22;13877;18.896;-99.222;2023-06-22T02:22:11;29.20;36.60
12413;DHT22;13877;18.896;-99.222;2023-06-22T02:24:38;29.10;36.50
12413;DHT22;13877;18.896;-99.222;2023-06-22T02:27:05;29.10;36.60
12413;DHT22;13877;18.896;-99.222;2023-06-22T02:29:33;29.10;36.50
12413;DHT22;13877;18.896;-99.222;2023-06-22T02:32:02;29.10;36.40
12413;DHT22;13877;18.896;-99.222;2023-06-22T02:34:31;29.10;36.30
12413;DHT22;13877;18.896;-99.222;2023-06-22T02:37:00;29.10;36.10
12413;DHT22;13877;18.896;-99.222;2023-06-22T02:39:29;29.10;35.70
12413;DHT22;13877;18.896;-99.222;2023-06-22T02:41:56;29.10;35.00
12413;DHT22;13877;18.896;-99.222;2023-06-22T02:44:23;29.20;35.20
12413;DHT22;13877;18.896;-99.222;2023-06-22T02:46:49;29.20;34.70
12413;DHT22;13877;18.896;-99.222;2023-06-22T02:49:17;29.10;33.60
12413;DHT22;13877;18.896;-99.222;2023-06-22T02:51:48;29.10;33.30
12413;DHT22;13877;18.896;-99.222;2023-06-22T02:54:18;29.10;32.40
12413;DHT22;13877;18.896;-99.222;2023-06-22T02:56:47;29.00;32.00
12413;DHT22;13877;18.896;-99.222;2023-06-22T02:59:14;29.00;31.60
12413;DHT22;13877;18.896;-99.222;2023-06-22T03:01:42;29.00;31.00
12413;DHT22;13877;18.896;-99.222;2023-06-22T03:04:18;29.00;31.20
12413;DHT22;13877;18.896;-99.222;2023-06-22T03:06:45;28.90;31.60
12413;DHT22;13877;18.896;-99.222;2023-06-22T03:09:17;28.90;31.70
12413;DHT22;13877;18.896;-99.222;2023-06-22T03:11:44;28.90;32.50
12413;DHT22;13877;18.896;-99.222;2023-06-22T03:14:11;28.90;33.90
12413;DHT22;13877;18.896;-99.222;2023-06-22T03:16:38;28.90;34.30
12413;DHT22;13877;18.896;-99.222;2023-06-22T03:19:06;28.80;33.70
12413;DHT22;13877;18.896;-99.222;2023-06-22T03:21:33;28.80;32.80
12413;DHT22;13877;18.896;-99.222;2023-06-22T03:24:00;29.00;31.40
12413;DHT22;13877;18.896;-99.222;2023-06-22T03:26:27;29.10;31.30
12413;DHT22;13877;18.896;-99.222;2023-06-22T03:28:54;29.10;31.30
12413;DHT22;13877;18.896;-99.222;2023-06-22T03:31:22;29.10;31.10
12413;DHT22;13877;18.896;-99.222;2023-06-22T03:33:50;29.00;31.90
12413;DHT22;13877;18.896;-99.222;2023-06-22T03:36:18;28.80;32.10
12413;DHT22;13877;18.896;-99.222;2023-06-22T03:38:49;28.70;32.40
12413;DHT22;13877;18.896;-99.222;2023-06-22T03:41:17;28.60;32.30
12413;DHT22;13877;18.896;-99.222;2023-06-22T03:43:44;28.50;32.20
12413;DHT22;13877;18.896;-99.222;2023-06-22T03:46:11;28.60;32.30
12413;DHT22;13877;18.896;-99.222;2023-06-22T03:48:38;28.60;33.30
12413;DHT22;13877;18.896;-99.222;2023-06-22T03:51:05;28.50;33.10
12413;DHT22;13877;18.896;-99.222;2023-06-22T03:53:32;28.40;32.20
12413;DHT22;13877;18.896;-99.222;2023-06-22T03:55:59;28.40;32.70
12413;DHT22;13877;18.896;-99.222;2023-06-22T03:58:26;28.60;32.70
12413;DHT22;13877;18.896;-99.222;2023-06-22T04:00:59;28.90;32.10
12413;DHT22;13877;18.896;-99.222;2023-06-22T04:03:28;28.80;31.80
12413;DHT22;13877;18.896;-99.222;2023-06-22T04:05:55;28.80;31.40
12413;DHT22;13877;18.896;-99.222;2023-06-22T04:08:22;28.80;31.60
12413;DHT22;13877;18.896;-99.222;2023-06-22T04:10:49;28.80;29.60
12413;DHT22;13877;18.896;-99.222;2023-06-22T04:13:16;28.80;30.40
12413;DHT22;13877;18.896;-99.222;2023-06-22T04:15:43;28.80;29.90
12413;DHT22;13877;18.896;-99.222;2023-06-22T04:18:10;28.80;30.60
12413;DHT22;13877;18.896;-99.222;2023-06-22T04:20:37;28.80;30.50
12413;DHT22;13877;18.896;-99.222;2023-06-22T04:23:04;28.80;30.60
12413;DHT22;13877;18.896;-99.222;2023-06-22T04:25:30;28.90;25.40
12413;DHT22;13877;18.896;-99.222;2023-06-22T04:27:57;29.10;25.40
12413;DHT22;13877;18.896;-99.222;2023-06-22T04:30:24;29.20;23.80
12413;DHT22;13877;18.896;-99.222;2023-06-22T04:32:51;29.20;24.70
12413;DHT22;13877;18.896;-99.222;2023-06-22T04:35:24;29.20;25.30
12413;DHT22;13877;18.896;-99.222;2023-06-22T04:37:53;29.20;25.00
12413;DHT22;13877;18.896;-99.222;2023-06-22T04:40:23;29.20;24.60
12413;DHT22;13877;18.896;-99.222;2023-06-22T04:42:50;29.00;24.60
12413;DHT22;13877;18.896;-99.222;2023-06-22T04:45:20;28.80;24.20
12413;DHT22;13877;18.896;-99.222;2023-06-22T04:47:47;28.70;24.30
12413;DHT22;13877;18.896;-99.222;2023-06-22T04:50:14;28.90;23.20
12413;DHT22;13877;18.896;-99.222;2023-06-22T04:52:41;28.90;22.80
12413;DHT22;13877;18.896;-99.222;2023-06-22T04:55:08;28.80;22.90
12413;DHT22;13877;18.896;-99.222;2023-06-22T04:57:36;28.70;23.40
12413;DHT22;13877;18.896;-99.222;2023-06-22T05:00:06;28.50;23.60
12413;DHT22;13877;18.896;-99.222;2023-06-22T05:02:39;28.30;24.20
12413;DHT22;13877;18.896;-99.222;2023-06-22T05:05:07;28.10;24.90
12413;DHT22;13877;18.896;-99.222;2023-06-22T05:07:34;28.00;24.60
12413;DHT22;13877;18.896;-99.222;2023-06-22T05:10:02;28.00;24.60
12413;DHT22;13877;18.896;-99.222;2023-06-22T05:12:30;28.10;24.60
12413;DHT22;13877;18.896;-99.222;2023-06-22T05:14:57;28.10;24.40
12413;DHT22;13877;18.896;-99.222;2023-06-22T05:17:24;28.00;25.20
12413;DHT22;13877;18.896;-99.222;2023-06-22T05:19:51;27.80;25.40
12413;DHT22;13877;18.896;-99.222;2023-06-22T05:22:19;27.70;25.10
12413;DHT22;13877;18.896;-99.222;2023-06-22T05:24:46;27.60;25.10
12413;DHT22;13877;18.896;-99.222;2023-06-22T05:27:14;27.50;25.20
12413;DHT22;13877;18.896;-99.222;2023-06-22T05:29:41;27.60;29.50
12413;DHT22;13877;18.896;-99.222;2023-06-22T05:32:09;27.80;34.00
12413;DHT22;13877;18.896;-99.222;2023-06-22T05:34:36;27.90;38.10
12413;DHT22;13877;18.896;-99.222;2023-06-22T05:37:03;27.80;39.40
12413;DHT22;13877;18.896;-99.222;2023-06-22T05:39:30;27.80;41.20
12413;DHT22;13877;18.896;-99.222;2023-06-22T05:41:57;27.80;42.20
12413;DHT22;13877;18.896;-99.222;2023-06-22T05:44:24;27.70;43.00
12413;DHT22;13877;18.896;-99.222;2023-06-22T05:46:51;27.70;43.40
12413;DHT22;13877;18.896;-99.222;2023-06-22T05:49:17;27.50;44.30
12413;DHT22;13877;18.896;-99.222;2023-06-22T05:51:44;27.50;44.00
12413;DHT22;13877;18.896;-99.222;2023-06-22T05:54:11;27.50;44.30
12413;DHT22;13877;18.896;-99.222;2023-06-22T05:56:40;27.50;44.70
12413;DHT22;13877;18.896;-99.222;2023-06-22T05:59:07;27.40;45.20
12413;DHT22;13877;18.896;-99.222;2023-06-22T06:01:34;27.40;46.00
12413;DHT22;13877;18.896;-99.222;2023-06-22T06:04:04;27.30;46.40
12413;DHT22;13877;18.896;-99.222;2023-06-22T06:06:31;27.30;46.70
12413;DHT22;13877;18.896;-99.222;2023-06-22T06:08:58;27.20;47.30
12413;DHT22;13877;18.896;-99.222;2023-06-22T06:11:25;27.10;47.60
12413;DHT22;13877;18.896;-99.222;2023-06-22T06:13:52;27.00;48.20
12413;DHT22;13877;18.896;-99.222;2023-06-22T06:16:19;26.90;48.60
12413;DHT22;13877;18.896;-99.222;2023-06-22T06:18:47;26.80;48.90
12413;DHT22;13877;18.896;-99.222;2023-06-22T06:21:16;26.70;49.30
12413;DHT22;13877;18.896;-99.222;2023-06-22T06:23:43;26.70;49.70
12413;DHT22;13877;18.896;-99.222;2023-06-22T06:26:10;26.60;50.10
12413;DHT22;13877;18.896;-99.222;2023-06-22T06:28:37;26.40;50.40
12413;DHT22;13877;18.896;-99.222;2023-06-22T06:31:04;26.30;50.80
12413;DHT22;13877;18.896;-99.222;2023-06-22T06:33:34;26.20;51.10
12413;DHT22;13877;18.896;-99.222;2023-06-22T06:36:00;26.10;51.50
12413;DHT22;13877;18.896;-99.222;2023-06-22T06:38:30;26.00;51.70
12413;DHT22;13877;18.896;-99.222;2023-06-22T06:40:58;25.90;52.00
12413;DHT22;13877;18.896;-99.222;2023-06-22T06:43:26;25.90;52.30
12413;DHT22;13877;18.896;-99.222;2023-06-22T06:45:55;25.70;52.80
12413;DHT22;13877;18.896;-99.222;2023-06-22T06:48:22;25.60;53.20
12413;DHT22;13877;18.896;-99.222;2023-06-22T06:50:49;25.50;53.50
12413;DHT22;13877;18.896;-99.222;2023-06-22T06:53:16;25.40;53.80
12413;DHT22;13877;18.896;-99.222;2023-06-22T06:55:43;25.30;54.30
12413;DHT22;13877;18.896;-99.222;2023-06-22T06:58:12;25.20;54.30
12413;DHT22;13877;18.896;-99.222;2023-06-22T07:00:39;25.00;55.10
12413;DHT22;13877;18.896;-99.222;2023-06-22T07:03:06;24.90;55.60
12413;DHT22;13877;18.896;-99.222;2023-06-22T07:05:33;24.90;56.40
12413;DHT22;13877;18.896;-99.222;2023-06-22T07:08:00;24.80;56.60
12413;DHT22;13877;18.896;-99.222;2023-06-22T07:10:27;24.60;56.70
12413;DHT22;13877;18.896;-99.222;2023-06-22T07:12:54;24.60;57.20
12413;DHT22;13877;18.896;-99.222;2023-06-22T07:15:21;24.50;57.50
12413;DHT22;13877;18.896;-99.222;2023-06-22T07:17:48;24.50;57.70
12413;DHT22;13877;18.896;-99.222;2023-06-22T07:20:14;24.50;57.90
12413;DHT22;13877;18.896;-99.222;2023-06-22T07:22:43;24.40;57.90
12413;DHT22;13877;18.896;-99.222;2023-06-22T07:25:14;24.40;58.10
12413;DHT22;13877;18.896;-99.222;2023-06-22T07:27:46;24.30;58.20
12413;DHT22;13877;18.896;-99.222;2023-06-22T07:30:13;24.30;58.90
12413;DHT22;13877;18.896;-99.222;2023-06-22T07:32:41;24.30;59.20
12413;DHT22;13877;18.896;-99.222;2023-06-22T07:35:08;24.40;58.90
12413;DHT22;13877;18.896;-99.222;2023-06-22T07:37:35;24.50;59.10
12413;DHT22;13877;18.896;-99.222;2023-06-22T07:40:02;24.50;59.10
12413;DHT22;13877;18.896;-99.222;2023-06-22T07:42:32;24.50;59.10
12413;DHT22;13877;18.896;-99.222;2023-06-22T07:44:59;24.60;58.90
12413;DHT22;13877;18.896;-99.222;2023-06-22T07:47:27;24.70;58.70
12413;DHT22;13877;18.896;-99.222;2023-06-22T07:49:55;24.70;58.60
12413;DHT22;13877;18.896;-99.222;2023-06-22T07:52:24;24.70;58.50
12413;DHT22;13877;18.896;-99.222;2023-06-22T07:54:52;24.80;58.50
12413;DHT22;13877;18.896;-99.222;2023-06-22T07:57:20;24.90;58.50
12413;DHT22;13877;18.896;-99.222;2023-06-22T07:59:47;24.80;58.50
12413;DHT22;13877;18.896;-99.222;2023-06-22T08:02:13;24.70;58.70
12413;DHT22;13877;18.896;-99.222;2023-06-22T08:04:41;24.70;58.60
12413;DHT22;13877;18.896;-99.222;2023-06-22T08:07:08;24.70;57.50
12413;DHT22;13877;18.896;-99.222;2023-06-22T08:09:36;24.90;50.50
12413;DHT22;13877;18.896;-99.222;2023-06-22T08:12:03;25.00;47.60
12413;DHT22;13877;18.896;-99.222;2023-06-22T08:14:30;25.10;46.60
12413;DHT22;13877;18.896;-99.222;2023-06-22T08:16:57;25.10;45.80
12413;DHT22;13877;18.896;-99.222;2023-06-22T08:19:24;25.00;46.20
12413;DHT22;13877;18.896;-99.222;2023-06-22T08:21:50;24.80;46.20
12413;DHT22;13877;18.896;-99.222;2023-06-22T08:24:18;24.60;47.60
12413;DHT22;13877;18.896;-99.222;2023-06-22T08:26:44;24.30;49.00
12413;DHT22;13877;18.896;-99.222;2023-06-22T08:29:12;24.20;52.10
12413;DHT22;13877;18.896;-99.222;2023-06-22T08:31:39;24.20;55.60
12413;DHT22;13877;18.896;-99.222;2023-06-22T08:34:06;24.30;53.50
12413;DHT22;13877;18.896;-99.222;2023-06-22T08:36:33;24.30;54.20
12413;DHT22;13877;18.896;-99.222;2023-06-22T08:39:04;24.20;54.00
12413;DHT22;13877;18.896;-99.222;2023-06-22T08:41:30;24.10;54.00
12413;DHT22;13877;18.896;-99.222;2023-06-22T08:43:57;23.90;53.20
12413;DHT22;13877;18.896;-99.222;2023-06-22T08:46:24;23.80;52.70
12413;DHT22;13877;18.896;-99.222;2023-06-22T08:48:57;23.60;49.80
12413;DHT22;13877;18.896;-99.222;2023-06-22T08:51:24;23.70;44.20
12413;DHT22;13877;18.896;-99.222;2023-06-22T08:53:51;23.70;44.10
12413;DHT22;13877;18.896;-99.222;2023-06-22T08:56:17;23.80;42.60
12413;DHT22;13877;18.896;-99.222;2023-06-22T08:58:45;23.80;42.50
12413;DHT22;13877;18.896;-99.222;2023-06-22T09:01:12;23.70;42.50
12413;DHT22;13877;18.896;-99.222;2023-06-22T09:03:42;23.60;41.30
12413;DHT22;13877;18.896;-99.222;2023-06-22T09:06:09;23.60;40.80
12413;DHT22;13877;18.896;-99.222;2023-06-22T09:08:36;23.60;41.20
12413;DHT22;13877;18.896;-99.222;2023-06-22T09:11:03;23.60;41.00
12413;DHT22;13877;18.896;-99.222;2023-06-22T09:13:31;23.50;40.90
12413;DHT22;13877;18.896;-99.222;2023-06-22T09:15:58;23.60;40.60
12413;DHT22;13877;18.896;-99.222;2023-06-22T09:18:25;23.60;40.20
12413;DHT22;13877;18.896;-99.222;2023-06-22T09:20:52;23.70;40.00
12413;DHT22;13877;18.896;-99.222;2023-06-22T09:23:19;23.80;39.90
12413;DHT22;13877;18.896;-99.222;2023-06-22T09:25:46;23.80;39.60
12413;DHT22;13877;18.896;-99.222;2023-06-22T09:28:17;23.70;40.00
12413;DHT22;13877;18.896;-99.222;2023-06-22T09:30:44;23.60;40.40
12413;DHT22;13877;18.896;-99.222;2023-06-22T09:33:11;23.50;41.00
12413;DHT22;13877;18.896;-99.222;2023-06-22T09:35:37;23.50;41.50
12413;DHT22;13877;18.896;-99.222;2023-06-22T09:38:04;23.50;41.60
12413;DHT22;13877;18.896;-99.222;2023-06-22T09:40:31;23.50;41.60
12413;DHT22;13877;18.896;-99.222;2023-06-22T09:43:01;23.50;41.70
12413;DHT22;13877;18.896;-99.222;2023-06-22T09:45:28;23.50;42.00
12413;DHT22;13877;18.896;-99.222;2023-06-22T09:47:55;23.50;42.40
12413;DHT22;13877;18.896;-99.222;2023-06-22T09:50:22;23.50;41.80
12413;DHT22;13877;18.896;-99.222;2023-06-22T09:52:49;23.50;41.70
12413;DHT22;13877;18.896;-99.222;2023-06-22T09:55:21;23.50;41.60
12413;DHT22;13877;18.896;-99.222;2023-06-22T09:57:48;23.40;42.00
12413;DHT22;13877;18.896;-99.222;2023-06-22T10:00:17;23.30;42.00
12413;DHT22;13877;18.896;-99.222;2023-06-22T10:02:45;23.20;42.00
12413;DHT22;13877;18.896;-99.222;2023-06-22T10:05:12;23.20;42.00
12413;DHT22;13877;18.896;-99.222;2023-06-22T10:07:40;23.30;42.10
12413;DHT22;13877;18.896;-99.222;2023-06-22T10:10:10;23.40;41.70
12413;DHT22;13877;18.896;-99.222;2023-06-22T10:13:03;23.40;41.40
12413;DHT22;13877;18.896;-99.222;2023-06-22T10:15:28;23.50;41.00
12413;DHT22;13877;18.896;-99.222;2023-06-22T10:17:55;23.60;40.40
12413;DHT22;13877;18.896;-99.222;2023-06-22T10:20:22;23.80;40.50
12413;DHT22;13877;18.896;-99.222;2023-06-22T10:22:49;23.80;40.80
12413;DHT22;13877;18.896;-99.222;2023-06-22T10:25:17;23.80;40.80
12413;DHT22;13877;18.896;-99.222;2023-06-22T10:27:45;23.60;40.70
12413;DHT22;13877;18.896;-99.222;2023-06-22T10:30:12;23.60;41.60
12413;DHT22;13877;18.896;-99.222;2023-06-22T10:32:40;23.50;42.40
12413;DHT22;13877;18.896;-99.222;2023-06-22T10:35:07;23.40;42.70
12413;DHT22;13877;18.896;-99.222;2023-06-22T10:37:35;23.30;42.80
12413;DHT22;13877;18.896;-99.222;2023-06-22T10:40:02;23.30;43.30
12413;DHT22;13877;18.896;-99.222;2023-06-22T10:42:30;23.10;43.10
12413;DHT22;13877;18.896;-99.222;2023-06-22T10:44:57;23.00;43.20
12413;DHT22;13877;18.896;-99.222;2023-06-22T10:47:24;22.80;43.30
12413;DHT22;13877;18.896;-99.222;2023-06-22T10:49:51;22.70;43.70
12413;DHT22;13877;18.896;-99.222;2023-06-22T10:52:17;22.50;43.90
12413;DHT22;13877;18.896;-99.222;2023-06-22T10:54:44;22.50;44.00
12413;DHT22;13877;18.896;-99.222;2023-06-22T10:57:11;22.70;43.70
12413;DHT22;13877;18.896;-99.222;2023-06-22T10:59:38;22.70;43.10
12413;DHT22;13877;18.896;-99.222;2023-06-22T11:02:05;22.90;42.80
12413;DHT22;13877;18.896;-99.222;2023-06-22T11:04:32;22.90;42.40
12413;DHT22;13877;18.896;-99.222;2023-06-22T11:06:59;22.90;42.30
12413;DHT22;13877;18.896;-99.222;2023-06-22T11:09:26;22.90;41.80
12413;DHT22;13877;18.896;-99.222;2023-06-22T11:11:52;22.90;42.00
12413;DHT22;13877;18.896;-99.222;2023-06-22T11:14:20;22.90;42.20
12413;DHT22;13877;18.896;-99.222;2023-06-22T11:16:47;22.80;42.20
12413;DHT22;13877;18.896;-99.222;2023-06-22T11:19:14;22.70;42.30
12413;DHT22;13877;18.896;-99.222;2023-06-22T11:21:41;22.70;42.40
12413;DHT22;13877;18.896;-99.222;2023-06-22T11:24:08;22.70;42.30
12413;DHT22;13877;18.896;-99.222;2023-06-22T11:26:35;22.80;42.00
12413;DHT22;13877;18.896;-99.222;2023-06-22T11:29:03;22.90;42.10
12413;DHT22;13877;18.896;-99.222;2023-06-22T11:31:34;23.00;41.80
12413;DHT22;13877;18.896;-99.222;2023-06-22T11:34:01;23.10;41.20
12413;DHT22;13877;18.896;-99.222;2023-06-22T11:36:29;23.10;41.40
12413;DHT22;13877;18.896;-99.222;2023-06-22T11:38:59;23.10;41.10
12413;DHT22;13877;18.896;-99.222;2023-06-22T11:41:26;23.00;41.00
12413;DHT22;13877;18.896;-99.222;2023-06-22T11:43:53;22.90;41.20
12413;DHT22;13877;18.896;-99.222;2023-06-22T11:46:20;22.80;41.60
12413;DHT22;13877;18.896;-99.222;2023-06-22T11:48:47;22.70;41.60
12413;DHT22;13877;18.896;-99.222;2023-06-22T11:51:13;22.60;42.00
12413;DHT22;13877;18.896;-99.222;2023-06-22T11:53:40;22.50;42.10
12413;DHT22;13877;18.896;-99.222;2023-06-22T11:56:07;22.40;42.50
12413;DHT22;13877;18.896;-99.222;2023-06-22T11:58:34;22.30;42.50
12413;DHT22;13877;18.896;-99.222;2023-06-22T12:01:01;22.30;42.60
12413;DHT22;13877;18.896;-99.222;2023-06-22T12:03:27;22.10;42.50
12413;DHT22;13877;18.896;-99.222;2023-06-22T12:05:55;22.00;43.20
12413;DHT22;13877;18.896;-99.222;2023-06-22T12:08:22;22.00;44.30
12413;DHT22;13877;18.896;-99.222;2023-06-22T12:10:50;22.10;43.70
12413;DHT22;13877;18.896;-99.222;2023-06-22T12:13:17;22.20;43.70
12413;DHT22;13877;18.896;-99.222;2023-06-22T12:15:44;22.10;43.50
12413;DHT22;13877;18.896;-99.222;2023-06-22T12:18:11;22.10;43.60
12413;DHT22;13877;18.896;-99.222;2023-06-22T12:20:38;22.30;43.20
12413;DHT22;13877;18.896;-99.222;2023-06-22T12:23:05;22.40;42.90
12413;DHT22;13877;18.896;-99.222;2023-06-22T12:25:32;22.40;43.40
12413;DHT22;13877;18.896;-99.222;2023-06-22T12:27:59;22.40;43.30
12413;DHT22;13877;18.896;-99.222;2023-06-22T12:30:25;22.50;43.40
12413;DHT22;13877;18.896;-99.222;2023-06-22T12:32:52;22.80;42.90
12413;DHT22;13877;18.896;-99.222;2023-06-22T12:35:19;22.90;42.40
12413;DHT22;13877;18.896;-99.222;2023-06-22T12:37:46;23.10;42.30
12413;DHT22;13877;18.896;-99.222;2023-06-22T12:40:13;23.20;41.90
12413;DHT22;13877;18.896;-99.222;2023-06-22T12:42:40;23.50;42.00
12413;DHT22;13877;18.896;-99.222;2023-06-22T12:45:08;23.60;41.80
12413;DHT22;13877;18.896;-99.222;2023-06-22T12:47:35;23.70;41.60
12413;DHT22;13877;18.896;-99.222;2023-06-22T12:50:03;23.90;41.50
12413;DHT22;13877;18.896;-99.222;2023-06-22T12:52:32;23.90;40.70
12413;DHT22;13877;18.896;-99.222;2023-06-22T12:55:00;24.10;40.80
12413;DHT22;13877;18.896;-99.222;2023-06-22T12:57:27;24.20;40.60
12413;DHT22;13877;18.896;-99.222;2023-06-22T12:59:54;24.30;40.20
12413;DHT22;13877;18.896;-99.222;2023-06-22T13:02:20;24.40;40.40
12413;DHT22;13877;18.896;-99.222;2023-06-22T13:04:48;24.50;40.00
12413;DHT22;13877;18.896;-99.222;2023-06-22T13:07:14;24.60;40.20
12413;DHT22;13877;18.896;-99.222;2023-06-22T13:09:41;24.70;39.70
12413;DHT22;13877;18.896;-99.222;2023-06-22T13:12:08;24.80;40.00
12413;DHT22;13877;18.896;-99.222;2023-06-22T13:14:35;25.00;39.60
12413;DHT22;13877;18.896;-99.222;2023-06-22T13:17:02;25.10;39.20
12413;DHT22;13877;18.896;-99.222;2023-06-22T13:19:29;25.30;39.70
12413;DHT22;13877;18.896;-99.222;2023-06-22T13:21:59;25.40;39.30
12413;DHT22;13877;18.896;-99.222;2023-06-22T13:24:26;25.50;39.40
12413;DHT22;13877;18.896;-99.222;2023-06-22T13:26:53;25.70;39.10
12413;DHT22;13877;18.896;-99.222;2023-06-22T13:29:21;25.90;38.70
12413;DHT22;13877;18.896;-99.222;2023-06-22T13:31:49;26.00;38.90
12413;DHT22;13877;18.896;-99.222;2023-06-22T13:34:16;26.20;38.20
12413;DHT22;13877;18.896;-99.222;2023-06-22T13:36:43;26.40;38.30
12413;DHT22;13877;18.896;-99.222;2023-06-22T13:39:10;26.60;38.30
12413;DHT22;13877;18.896;-99.222;2023-06-22T13:41:36;26.70;38.40
12413;DHT22;13877;18.896;-99.222;2023-06-22T13:44:03;26.80;38.10
12413;DHT22;13877;18.896;-99.222;2023-06-22T13:46:30;26.90;37.60
12413;DHT22;13877;18.896;-99.222;2023-06-22T13:48:57;27.10;38.10
12413;DHT22;13877;18.896;-99.222;2023-06-22T13:51:23;27.30;37.40
12413;DHT22;13877;18.896;-99.222;2023-06-22T13:53:50;27.40;37.90
12413;DHT22;13877;18.896;-99.222;2023-06-22T13:56:17;27.50;38.40
12413;DHT22;13877;18.896;-99.222;2023-06-22T13:58:44;27.70;37.80
12413;DHT22;13877;18.896;-99.222;2023-06-22T14:01:11;27.90;37.00
12413;DHT22;13877;18.896;-99.222;2023-06-22T14:03:38;28.10;36.80
12413;DHT22;13877;18.896;-99.222;2023-06-22T14:06:05;28.30;37.00
12413;DHT22;13877;18.896;-99.222;2023-06-22T14:08:32;28.50;37.10
12413;DHT22;13877;18.896;-99.222;2023-06-22T14:10:58;28.70;37.60
12413;DHT22;13877;18.896;-99.222;2023-06-22T14:13:25;28.70;36.40
12413;DHT22;13877;18.896;-99.222;2023-06-22T14:15:52;28.80;36.90
12413;DHT22;13877;18.896;-99.222;2023-06-22T14:18:20;28.90;37.00
12413;DHT22;13877;18.896;-99.222;2023-06-22T14:20:51;29.00;36.80
12413;DHT22;13877;18.896;-99.222;2023-06-22T14:23:18;29.10;36.80
12413;DHT22;13877;18.896;-99.222;2023-06-22T14:25:45;29.30;36.30
12413;DHT22;13877;18.896;-99.222;2023-06-22T14:28:12;29.20;36.90
12413;DHT22;13877;18.896;-99.222;2023-06-22T14:30:39;29.10;36.90
12413;DHT22;13877;18.896;-99.222;2023-06-22T14:33:05;29.10;37.40
12413;DHT22;13877;18.896;-99.222;2023-06-22T14:35:32;29.20;37.30
12413;DHT22;13877;18.896;-99.222;2023-06-22T14:38:00;29.30;37.40
12413;DHT22;13877;18.896;-99.222;2023-06-22T14:40:26;29.30;37.50
12413;DHT22;13877;18.896;-99.222;2023-06-22T14:42:53;29.70;38.10
12413;DHT22;13877;18.896;-99.222;2023-06-22T14:45:23;29.80;37.10
12413;DHT22;13877;18.896;-99.222;2023-06-22T14:47:50;29.90;37.10
12413;DHT22;13877;18.896;-99.222;2023-06-22T14:50:17;29.90;37.50
12413;DHT22;13877;18.896;-99.222;2023-06-22T14:52:44;30.10;37.10
12413;DHT22;13877;18.896;-99.222;2023-06-22T14:55:11;30.40;36.80
12413;DHT22;13877;18.896;-99.222;2023-06-22T14:57:38;30.00;36.10
12413;DHT22;13877;18.896;-99.222;2023-06-22T15:00:05;30.20;37.00
12413;DHT22;13877;18.896;-99.222;2023-06-22T15:02:33;30.40;36.20
12413;DHT22;13877;18.896;-99.222;2023-06-22T15:05:00;30.50;37.10
12413;DHT22;13877;18.896;-99.222;2023-06-22T15:07:27;30.50;35.40
12413;DHT22;13877;18.896;-99.222;2023-06-22T15:09:53;30.60;36.00
12413;DHT22;13877;18.896;-99.222;2023-06-22T15:12:20;30.80;36.80
12413;DHT22;13877;18.896;-99.222;2023-06-22T15:14:47;30.80;35.90
12413;DHT22;13877;18.896;-99.222;2023-06-22T15:17:15;30.50;36.40
12413;DHT22;13877;18.896;-99.222;2023-06-22T15:19:42;30.80;36.90